Terminal Aerodrome Forecast
Issued by NWS

Home | Current Version | Previous Version | Text Only | Print | Product List | Glossary On
Versions: 1 2 3 4 5 6 7 8 9 10 11 12 13 14 15 16
000
FTUS41 KRNK 241325 AAB
TAFLWB
TAF AMD
KLWB 241325Z 2413/2512 28008G15KT P6SM SCT015 BKN025
     FM241600 28009G17KT P6SM SCT040 BKN250
     FM250200 00000KT P6SM SCT250=

USA.gov is the U.S. government's official web portal to all federal, state and local government web resources and services.